createdAt,value
2018-12-05T00:02:06.880Z,101792.11
2018-12-05T00:04:31.953Z,101798.41
2018-12-05T00:06:57.122Z,101788.21
2018-12-05T00:09:22.282Z,101793.77
2018-12-05T00:11:47.564Z,101788.78
2018-12-05T00:14:12.726Z,101791.25
2018-12-05T00:16:37.788Z,101789.02
2018-12-05T00:19:02.849Z,101792.39
2018-12-05T00:21:27.927Z,101791.91
2018-12-05T00:23:53.006Z,101795.04
2018-12-05T00:26:18.058Z,101789.02
2018-12-05T00:28:43.184Z,101797.59
2018-12-05T00:31:20.235Z,101797.47
2018-12-05T00:34:05.187Z,101796.38
2018-12-05T00:36:30.260Z,101792.42
2018-12-05T00:38:55.319Z,101788.85
2018-12-05T00:41:20.551Z,101800.19
2018-12-05T00:43:45.655Z,101796.03
2018-12-05T00:46:10.763Z,101799.41
2018-12-05T00:48:35.798Z,101797.08
2018-12-05T00:51:00.894Z,101796.94
2018-12-05T00:53:25.963Z,101804.28
2018-12-05T00:55:51.038Z,101803.63
2018-12-05T00:58:16.135Z,101798.38
2018-12-05T01:00:41.164Z,101796.21
2018-12-05T01:03:06.217Z,101794.31
2018-12-05T01:05:41.604Z,101799.44
2018-12-05T01:08:06.655Z,101798.85
2018-12-05T01:10:31.832Z,101801.83
2018-12-05T01:12:56.876Z,101800.75
2018-12-05T01:15:21.931Z,101804.78
2018-12-05T01:18:06.874Z,101805.95
2018-12-05T01:20:31.923Z,101814.78
2018-12-05T01:22:56.991Z,101815.44
2018-12-05T01:25:22.034Z,101819.72
2018-12-05T01:27:47.210Z,101823.30
2018-12-05T01:30:32.149Z,101822.28
2018-12-05T01:32:57.225Z,101828.39
2018-12-05T01:35:22.358Z,101829.82
2018-12-05T01:37:47.565Z,101826.59
2018-12-05T01:40:12.746Z,101834.41
2018-12-05T01:42:37.809Z,101831.25
2018-12-05T01:45:02.998Z,101822.95
2018-12-05T01:47:28.219Z,101822.54
2018-12-05T01:49:53.531Z,101816.92
2018-12-05T01:52:18.657Z,101818.05
2018-12-05T01:54:43.723Z,101822.08
2018-12-05T01:57:08.770Z,101818.73
2018-12-05T01:59:33.868Z,101820.24
2018-12-05T02:01:58.974Z,101820.50
2018-12-05T02:04:24.229Z,101816.49
2018-12-05T02:06:49.410Z,101821.98
2018-12-05T02:09:14.649Z,101814.58
2018-12-05T02:11:39.808Z,101817.86
2018-12-05T02:14:05.872Z,101829.21
2018-12-05T02:16:30.899Z,101819.70
2018-12-05T02:18:55.988Z,101825.03
2018-12-05T02:21:31.811Z,101824.05
2018-12-05T02:23:56.947Z,101827.20
2018-12-05T02:26:21.987Z,101829.64
2018-12-05T02:28:47.081Z,101828.17
2018-12-05T02:31:12.227Z,101834.53
2018-12-05T02:33:37.287Z,101836.00
2018-12-05T02:36:02.414Z,101838.14
2018-12-05T02:38:27.550Z,101840.63
2018-12-05T02:40:52.700Z,101840.09
2018-12-05T02:43:17.747Z,101834.46
2018-12-05T02:45:42.853Z,101834.77
2018-12-05T02:48:07.916Z,101837.31
2018-12-05T02:50:33.403Z,101846.72
2018-12-05T02:52:58.449Z,101837.86
2018-12-05T02:55:23.498Z,101840.19
2018-12-05T02:57:48.729Z,101842.98
2018-12-05T03:00:13.974Z,101839.36
2018-12-05T03:02:39.008Z,101849.79
2018-12-05T03:05:23.977Z,101849.07
2018-12-05T03:07:49.105Z,101850.86
2018-12-05T03:10:14.359Z,101848.09
2018-12-05T03:12:39.510Z,101844.85
2018-12-05T03:15:04.637Z,101849.53
2018-12-05T03:17:29.688Z,101845.03
2018-12-05T03:19:54.759Z,101843.97
2018-12-05T03:22:19.832Z,101844.48
2018-12-05T03:24:55.018Z,101848.11
2018-12-05T03:27:20.058Z,101841.67
2018-12-05T03:29:45.136Z,101839.28
2018-12-05T03:32:10.277Z,101843.13
2018-12-05T03:34:35.435Z,101843.92
2018-12-05T03:37:00.471Z,101845.86
2018-12-05T03:39:25.530Z,101845.81
2018-12-05T03:41:50.607Z,101843.90
2018-12-05T03:44:15.684Z,101843.46
2018-12-05T03:46:40.810Z,101851.81
2018-12-05T03:49:05.993Z,101847.07
2018-12-05T03:51:31.062Z,101849.92
2018-12-05T03:53:56.143Z,101846.80
2018-12-05T03:56:33.286Z,101851.22
2018-12-05T03:58:58.316Z,101855.02
2018-12-05T04:01:23.551Z,101849.06
2018-12-05T04:03:48.606Z,101862.22
2018-12-05T04:06:13.799Z,101861.79
2018-12-05T04:08:38.837Z,101861.02
2018-12-05T04:11:04.068Z,101866.03
2018-12-05T04:13:29.138Z,101862.27
2018-12-05T04:15:54.363Z,101877.66
2018-12-05T04:18:19.441Z,101873.75
2018-12-05T04:20:44.573Z,101879.49
2018-12-05T04:23:09.747Z,101879.74
2018-12-05T04:25:34.813Z,101879.74
2018-12-05T04:27:59.945Z,101876.17
2018-12-05T04:30:25.009Z,101873.92
2018-12-05T04:32:50.070Z,101874.94
2018-12-05T04:35:15.148Z,101878.72
2018-12-05T04:37:40.198Z,101880.36
2018-12-05T04:40:05.690Z,101875.30
2018-12-05T04:42:30.827Z,101871.55
2018-12-05T04:44:55.901Z,101871.62
2018-12-05T04:47:21.024Z,101868.30
2018-12-05T04:49:46.104Z,101864.20
2018-12-05T04:52:11.152Z,101865.86
2018-12-05T04:54:36.219Z,101862.00
2018-12-05T04:57:01.300Z,101868.38
2018-12-05T04:59:26.361Z,101865.34
2018-12-05T05:02:02.010Z,101864.25
2018-12-05T05:04:27.058Z,101870.22
2018-12-05T05:06:52.143Z,101867.58
2018-12-05T05:09:17.220Z,101871.78
2018-12-05T05:14:19.503Z,101876.30
2018-12-05T05:16:44.536Z,101875.62
2018-12-05T05:19:09.703Z,101874.66
2018-12-05T05:21:34.752Z,101873.73
2018-12-05T05:23:59.853Z,101884.29
2018-12-05T05:26:24.933Z,101881.52
2018-12-05T05:28:50.015Z,101878.42
2018-12-05T05:31:15.107Z,101881.30
2018-12-05T05:33:40.272Z,101886.01
2018-12-05T05:36:25.310Z,101888.32
2018-12-05T05:38:50.358Z,101884.89
2018-12-05T05:41:15.429Z,101885.53
2018-12-05T05:43:40.696Z,101885.33
2018-12-05T05:46:05.851Z,101878.66
2018-12-05T05:48:31.098Z,101886.58
2018-12-05T05:50:56.179Z,101887.63
2018-12-05T05:53:21.315Z,101884.66
2018-12-05T05:55:46.373Z,101880.42
2018-12-05T05:58:11.463Z,101880.50
2018-12-05T06:00:36.620Z,101878.53
2018-12-05T06:03:01.804Z,101886.38
2018-12-05T06:05:26.904Z,101889.48
2018-12-05T06:07:51.959Z,101887.95
2018-12-05T06:10:17.069Z,101892.03
2018-12-05T06:12:42.114Z,101888.48
2018-12-05T06:15:08.782Z,101891.59
2018-12-05T06:17:34.033Z,101897.27
2018-12-05T06:19:59.235Z,101909.63
2018-12-05T06:22:24.276Z,101905.34
2018-12-05T06:24:49.393Z,101904.59
2018-12-05T06:27:14.518Z,101918.87
2018-12-05T06:29:39.714Z,101914.84
2018-12-05T06:32:04.870Z,101911.25
2018-12-05T06:34:36.810Z,101909.48
2018-12-05T06:37:01.910Z,101913.30
2018-12-05T06:39:26.945Z,101912.19
2018-12-05T06:41:52.078Z,101912.19
2018-12-05T06:44:17.167Z,101912.95
2018-12-05T06:46:42.241Z,101904.08
2018-12-05T06:49:07.386Z,101903.95
2018-12-05T06:51:32.509Z,101896.98
2018-12-05T06:53:57.581Z,101894.23
2018-12-05T06:56:22.743Z,101896.98
2018-12-05T06:58:47.919Z,101900.20
2018-12-05T07:01:13.116Z,101897.67
2018-12-05T07:03:38.258Z,101907.63
2018-12-05T07:06:03.569Z,101904.52
2018-12-05T07:08:28.718Z,101910.32
2018-12-05T07:10:53.892Z,101915.33
2018-12-05T07:13:18.981Z,101913.23
2018-12-05T07:15:44.075Z,101921.66
2018-12-05T07:18:09.158Z,101932.63
2018-12-05T07:20:34.293Z,101926.89
2018-12-05T07:22:59.345Z,101926.13
2018-12-05T07:25:24.557Z,101933.10
2018-12-05T07:27:49.617Z,101938.34
2018-12-05T07:30:14.722Z,101932.38
2018-12-05T07:32:39.810Z,101927.62
2018-12-05T07:35:05.251Z,101930.48
2018-12-05T07:37:30.328Z,101925.39
2018-12-05T07:39:55.500Z,101933.52
2018-12-05T07:42:20.618Z,101925.72
2018-12-05T07:44:45.774Z,101925.52
2018-12-05T07:47:10.911Z,101928.70
2018-12-05T07:49:35.965Z,101932.38
2018-12-05T07:52:01.064Z,101929.40
2018-12-05T07:54:26.118Z,101924.39
2018-12-05T07:56:51.225Z,101920.80
2018-12-05T07:59:16.290Z,101918.37
2018-12-05T08:01:41.381Z,101917.00
2018-12-05T08:04:06.635Z,101925.17
2018-12-05T08:06:31.709Z,101923.23
2018-12-05T08:08:56.795Z,101921.84
2018-12-05T08:11:21.880Z,101925.59
2018-12-05T08:13:47.004Z,101918.45
2018-12-05T08:16:12.122Z,101921.50
2018-12-05T08:18:37.306Z,101925.72
2018-12-05T08:21:02.549Z,101921.40
2018-12-05T08:23:27.715Z,101923.21
2018-12-05T08:25:52.904Z,101919.95
2018-12-05T08:31:09.338Z,101922.75
2018-12-05T08:33:32.461Z,101925.26
2018-12-05T08:35:55.593Z,101924.03
2018-12-05T08:38:18.796Z,101924.08
2018-12-05T08:40:41.927Z,101920.86
2018-12-05T08:43:05.079Z,101918.11
2018-12-05T08:45:28.259Z,101923.41
2018-12-05T08:47:51.464Z,101921.63
2018-12-05T08:50:14.701Z,101920.02
2018-12-05T08:52:37.824Z,101929.41
2018-12-05T08:55:00.969Z,101927.00
2018-12-05T08:57:24.070Z,101926.52
2018-12-05T08:59:47.201Z,101930.44
2018-12-05T09:02:10.334Z,101926.30
2018-12-05T09:04:33.463Z,101931.81
2018-12-05T09:06:56.570Z,101926.17
2018-12-05T09:09:19.711Z,101933.19
2018-12-05T09:11:42.891Z,101933.94
2018-12-05T09:14:06.086Z,101935.70
2018-12-05T09:16:29.208Z,101938.25
2018-12-05T09:18:52.337Z,101932.81
2018-12-05T09:21:15.430Z,101935.94
2018-12-05T09:23:38.521Z,101933.67
2018-12-05T09:26:01.659Z,101926.98
2018-12-05T09:28:24.754Z,101922.30
2018-12-05T09:30:47.874Z,101919.13
2018-12-05T09:33:10.997Z,101920.34
2018-12-05T09:35:34.087Z,101929.70
2018-12-05T09:37:57.207Z,101921.88
2018-12-05T09:40:20.292Z,101923.31
2018-12-05T09:42:43.454Z,101914.72
2018-12-05T09:45:09.934Z,101913.25
2018-12-05T09:47:33.078Z,101910.69
2018-12-05T09:49:56.191Z,101913.36
2018-12-05T09:52:19.316Z,101916.84
2018-12-05T09:54:42.756Z,101924.81
2018-12-05T09:57:05.914Z,101920.41
2018-12-05T09:59:29.024Z,101912.16
2018-12-05T10:01:52.216Z,101907.92
2018-12-05T10:04:15.335Z,101904.56
2018-12-05T10:06:38.687Z,101904.29
2018-12-05T10:09:01.839Z,101896.80
2018-12-05T10:11:24.937Z,101890.02
2018-12-05T10:13:48.074Z,101883.63
2018-12-05T10:16:11.187Z,101878.97
2018-12-05T10:18:34.607Z,101860.03
2018-12-05T10:20:57.804Z,101799.84
2018-12-05T10:23:20.912Z,101863.06
2018-12-05T10:25:44.031Z,101855.66
2018-12-05T10:28:07.131Z,101850.23
2018-12-05T10:30:30.298Z,101841.22
2018-12-05T10:32:53.414Z,101841.27
2018-12-05T10:35:16.500Z,101841.43
2018-12-05T10:37:39.626Z,101846.24
2018-12-05T10:40:02.759Z,101849.78
2018-12-05T10:42:25.851Z,101849.25
2018-12-05T10:44:49.070Z,101848.47
2018-12-05T10:47:12.195Z,101845.60
2018-12-05T10:49:35.334Z,101838.66
2018-12-05T10:51:58.463Z,101837.28
2018-12-05T10:54:21.556Z,101832.70
2018-12-05T10:56:45.935Z,101824.80
2018-12-05T10:59:09.409Z,101819.85
2018-12-05T11:01:38.120Z,101825.57
2018-12-05T11:04:03.269Z,101804.52
2018-12-05T11:06:31.842Z,101819.96
2018-12-05T11:09:00.533Z,101814.23
2018-12-05T11:11:29.340Z,101810.52
2018-12-05T11:13:57.980Z,101811.44
2018-12-05T11:16:26.691Z,101807.82
2018-12-05T11:18:55.279Z,101805.44
2018-12-05T11:21:24.101Z,101798.33
2018-12-05T11:23:54.936Z,101799.10
2018-12-05T11:26:19.824Z,101803.34
2018-12-05T11:28:42.995Z,101794.52
2018-12-05T11:31:06.144Z,101789.09
2018-12-05T11:33:29.263Z,101783.67
2018-12-05T11:35:52.370Z,101770.55
2018-12-05T11:38:15.611Z,101777.05
2018-12-05T11:40:38.754Z,101775.05
2018-12-05T11:43:01.856Z,101771.98
2018-12-05T11:45:25.022Z,101770.19
2018-12-05T11:47:48.178Z,101768.47
2018-12-05T11:50:11.350Z,101772.77
2018-12-05T11:52:34.467Z,101762.84
2018-12-05T11:54:57.568Z,101764.39
2018-12-05T11:57:20.719Z,101763.13
2018-12-05T11:59:43.876Z,101761.73
2018-12-05T12:02:07.040Z,101765.21
2018-12-05T12:04:30.149Z,101761.40
2018-12-05T12:06:53.237Z,101761.03
2018-12-05T12:09:16.350Z,101757.32
2018-12-05T12:11:39.470Z,101752.31
2018-12-05T12:14:02.678Z,101743.75
2018-12-05T12:18:55.239Z,101737.23
2018-12-05T12:21:18.350Z,101744.69
2018-12-05T12:23:41.494Z,101747.24
2018-12-05T12:26:04.690Z,101739.21
2018-12-05T12:28:27.841Z,101745.78
2018-12-05T12:30:50.956Z,101741.66
2018-12-05T12:33:14.064Z,101737.69
2018-12-05T12:35:37.198Z,101738.75
2018-12-05T12:38:00.311Z,101734.81
2018-12-05T12:40:23.452Z,101737.12
2018-12-05T12:42:46.563Z,101734.91
2018-12-05T12:45:09.716Z,101721.56
2018-12-05T12:47:32.875Z,101726.96
2018-12-05T12:49:55.968Z,101721.84
2018-12-05T12:52:19.091Z,101714.27
2018-12-05T12:54:42.206Z,101719.00
2018-12-05T12:57:05.363Z,101715.63
2018-12-05T12:59:28.499Z,101708.34
2018-12-05T13:01:51.665Z,101704.53
2018-12-05T13:04:14.783Z,101701.06
2018-12-05T13:06:37.952Z,101700.84
2018-12-05T13:09:01.064Z,101705.22
2018-12-05T13:11:24.180Z,101696.46
2018-12-05T13:13:47.339Z,101697.62
2018-12-05T13:16:10.438Z,101697.62
2018-12-05T13:18:33.560Z,101696.45
2018-12-05T13:20:56.678Z,101692.05
2018-12-05T13:23:19.820Z,101687.44
2018-12-05T13:25:42.922Z,101690.16
2018-12-05T13:28:06.038Z,101681.75
2018-12-05T13:30:29.178Z,101689.33
2018-12-05T13:32:52.294Z,101683.03
2018-12-05T13:35:15.479Z,101671.11
2018-12-05T13:37:38.628Z,101670.06
2018-12-05T13:40:01.758Z,101676.23
2018-12-05T13:42:24.912Z,101671.95
2018-12-05T13:44:48.049Z,101670.41
2018-12-05T13:47:11.225Z,101670.73
2018-12-05T13:49:34.366Z,101673.14
2018-12-05T13:51:57.478Z,101662.51
2018-12-05T13:54:20.626Z,101665.97
2018-12-05T13:56:43.732Z,101661.05
2018-12-05T13:59:06.938Z,101657.69
2018-12-05T14:01:30.032Z,101644.34
2018-12-05T14:03:53.159Z,101642.54
2018-12-05T14:06:16.261Z,101638.20
2018-12-05T14:08:39.376Z,101638.27
2018-12-05T14:11:02.542Z,101634.29
2018-12-05T14:13:25.776Z,101626.80
2018-12-05T14:15:48.892Z,101619.87
2018-12-05T14:18:12.006Z,101623.64
2018-12-05T14:20:35.177Z,101616.78
2018-12-05T14:22:58.312Z,101616.37
2018-12-05T14:25:21.417Z,101613.19
2018-12-05T14:27:44.534Z,101614.62
2018-12-05T14:30:08.673Z,101611.48
2018-12-05T14:32:31.797Z,101609.69
2018-12-05T14:34:54.914Z,101603.56
2018-12-05T14:37:18.072Z,101605.95
2018-12-05T14:39:41.209Z,101598.84
2018-12-05T14:42:04.366Z,101602.00
2018-12-05T14:44:27.541Z,101595.67
2018-12-05T14:46:50.705Z,101594.86
2018-12-05T14:49:13.857Z,101599.01
2018-12-05T14:51:37.118Z,101599.63
2018-12-05T14:54:00.215Z,101597.41
2018-12-05T14:56:23.407Z,101593.47
2018-12-05T14:58:46.567Z,101592.08
2018-12-05T15:01:09.729Z,101591.64
2018-12-05T15:03:32.846Z,101594.20
2018-12-05T15:05:55.963Z,101591.38
2018-12-05T15:08:19.151Z,101592.83
2018-12-05T15:10:42.362Z,101592.02
2018-12-05T15:13:05.525Z,101593.70
2018-12-05T15:15:28.672Z,101582.53
2018-12-05T15:17:51.814Z,101585.41
2018-12-05T15:20:14.975Z,101583.92
2018-12-05T15:22:38.082Z,101570.73
2018-12-05T15:25:01.199Z,101568.75
2018-12-05T15:27:24.392Z,101562.02
2018-12-05T15:29:47.616Z,101557.07
2018-12-05T15:32:10.692Z,101562.63
2018-12-05T15:34:33.816Z,101555.05
2018-12-05T15:36:56.941Z,101557.66
2018-12-05T15:39:20.030Z,101549.53
2018-12-05T15:41:43.236Z,101545.70
2018-12-05T15:44:06.405Z,101550.60
2018-12-05T15:46:29.545Z,101542.07
2018-12-05T15:48:52.662Z,101532.41
2018-12-05T15:51:15.808Z,101536.62
2018-12-05T15:53:38.919Z,101535.60
2018-12-05T15:56:02.069Z,101529.14
2018-12-05T15:58:25.160Z,101531.50
2018-12-05T16:00:48.302Z,101524.64
2018-12-05T16:03:11.446Z,101516.55
2018-12-05T16:05:34.574Z,101510.55
2018-12-05T16:07:57.734Z,101514.33
2018-12-05T16:10:20.887Z,101516.54
2018-12-05T16:12:44.002Z,101514.73
2018-12-05T16:15:07.306Z,101514.25
2018-12-05T16:17:30.446Z,101505.65
2018-12-05T16:19:53.629Z,101494.47
2018-12-05T16:22:16.744Z,101487.75
2018-12-05T16:24:39.941Z,101488.11
2018-12-05T16:27:03.074Z,101481.40
2018-12-05T16:29:26.196Z,101476.86
2018-12-05T16:31:49.346Z,101471.81
2018-12-05T16:34:12.505Z,101469.67
2018-12-05T16:36:35.637Z,101469.12
2018-12-05T16:38:58.824Z,101472.10
2018-12-05T16:41:21.932Z,101466.41
2018-12-05T16:43:45.111Z,101464.30
2018-12-05T16:46:08.290Z,101461.17
2018-12-05T16:48:31.381Z,101463.13
2018-12-05T16:50:54.551Z,101452.17
2018-12-05T16:53:17.661Z,101454.97
2018-12-05T16:55:40.830Z,101443.13
2018-12-05T16:58:03.965Z,101446.91
2018-12-05T17:03:02.088Z,101442.41
2018-12-05T17:05:25.316Z,101445.56
2018-12-05T17:07:48.550Z,101441.07
2018-12-05T17:10:11.721Z,101440.09
2018-12-05T17:12:34.815Z,101344.36
2018-12-05T17:14:57.946Z,101430.58
2018-12-05T17:17:21.136Z,101422.16
2018-12-05T17:19:44.256Z,101422.31
2018-12-05T17:22:07.517Z,101408.52
2018-12-05T17:24:30.800Z,101407.31
2018-12-05T17:26:53.929Z,101406.74
2018-12-05T17:29:17.147Z,101403.73
2018-12-05T17:31:40.256Z,101397.52
2018-12-05T17:34:03.457Z,101394.54
2018-12-05T17:36:26.611Z,101393.42
2018-12-05T17:38:49.757Z,101398.22
2018-12-05T17:41:12.986Z,101390.45
2018-12-05T17:43:36.117Z,101396.72
2018-12-05T17:45:59.270Z,101394.98
2018-12-05T17:48:22.410Z,101385.47
2018-12-05T17:50:45.534Z,101387.65
2018-12-05T17:53:08.711Z,101387.91
2018-12-05T17:55:32.083Z,101384.97
2018-12-05T17:57:55.185Z,101378.63
2018-12-05T18:00:18.360Z,101374.80
2018-12-05T18:02:41.445Z,101367.52
2018-12-05T18:05:04.733Z,101363.08
2018-12-05T18:07:27.878Z,101365.16
2018-12-05T18:09:50.989Z,101354.39
2018-12-05T18:12:14.174Z,101356.88
2018-12-05T18:14:37.295Z,101345.38
2018-12-05T18:17:00.479Z,101338.98
2018-12-05T18:19:23.744Z,101341.11
2018-12-05T18:21:46.939Z,101341.30
2018-12-05T18:24:10.078Z,101339.88
2018-12-05T18:26:33.237Z,101329.91
2018-12-05T18:28:56.354Z,101326.55
2018-12-05T18:31:19.557Z,101314.91
2018-12-05T18:33:42.678Z,101318.63
2018-12-05T18:36:05.823Z,101315.58
2018-12-05T18:38:28.950Z,101318.48
2018-12-05T18:40:52.099Z,101304.98
2018-12-05T18:43:15.264Z,101305.86
2018-12-05T18:45:38.379Z,101309.52
2018-12-05T18:48:01.619Z,101314.02
2018-12-05T18:50:24.733Z,101305.47
2018-12-05T18:52:47.869Z,101299.08
2018-12-05T18:55:11.074Z,101291.91
2018-12-05T18:57:34.257Z,101293.66
2018-12-05T19:00:01.260Z,101281.91
2018-12-05T19:02:22.518Z,101278.03
2018-12-05T19:04:45.986Z,101271.13
2018-12-05T19:07:09.124Z,101269.89
2018-12-05T19:09:32.227Z,101268.02
2018-12-05T19:11:55.406Z,101259.56
2018-12-05T19:14:24.143Z,101258.77
2018-12-05T19:16:47.267Z,101251.58
2018-12-05T19:19:10.387Z,101247.20
2018-12-05T19:21:33.507Z,101239.30
2018-12-05T19:23:56.646Z,101243.05
2018-12-05T19:26:19.873Z,101232.59
2018-12-05T19:28:43.033Z,101229.08
2018-12-05T19:31:06.212Z,101225.79
2018-12-05T19:33:29.315Z,101223.00
2018-12-05T19:35:52.470Z,101217.55
2018-12-05T19:38:15.595Z,101210.77
2018-12-05T19:40:38.720Z,101201.75
2018-12-05T19:43:01.912Z,101204.11
2018-12-05T19:45:25.075Z,101205.65
2018-12-05T19:47:48.178Z,101200.70
2018-12-05T19:50:11.446Z,101191.75
2018-12-05T19:52:34.587Z,101186.00
2018-12-05T19:54:57.671Z,101189.89
2018-12-05T19:57:20.835Z,101184.25
2018-12-05T19:59:43.939Z,101185.09
2018-12-05T20:02:07.222Z,101187.28
2018-12-05T20:04:30.321Z,101177.61
2018-12-05T20:06:53.472Z,101173.45
2018-12-05T20:09:16.701Z,101182.04
2018-12-05T20:11:39.869Z,101175.96
2018-12-05T20:14:03.236Z,101177.05
2018-12-05T20:16:26.393Z,101162.64
2018-12-05T20:18:49.484Z,101164.06
2018-12-05T20:21:12.618Z,101161.29
2018-12-05T20:23:35.767Z,101161.70
2018-12-05T20:25:58.965Z,101153.02
2018-12-05T20:28:22.067Z,101147.78
2018-12-05T20:30:45.198Z,101144.94
2018-12-05T20:33:08.355Z,101080.89
2018-12-05T20:35:31.475Z,101141.20
2018-12-05T20:37:54.629Z,101137.68
2018-12-05T20:40:17.811Z,101135.49
2018-12-05T20:42:40.968Z,101133.73
2018-12-05T20:45:05.384Z,101123.68
2018-12-05T20:47:28.517Z,101122.68
2018-12-05T20:49:51.657Z,101110.94
2018-12-05T20:52:14.776Z,101119.32
2018-12-05T20:54:37.952Z,101114.73
2018-12-05T20:57:01.043Z,101111.06
2018-12-05T20:59:24.191Z,101111.94
2018-12-05T21:01:47.372Z,101112.44
2018-12-05T21:04:10.494Z,101102.38
2018-12-05T21:06:33.683Z,101103.98
2018-12-05T21:08:56.819Z,101100.03
2018-12-05T21:11:19.975Z,101092.30
2018-12-05T21:13:43.104Z,101088.43
2018-12-05T21:16:06.239Z,101089.98
2018-12-05T21:18:29.394Z,101080.13
2018-12-05T21:20:52.524Z,101076.80
2018-12-05T21:23:15.649Z,101084.86
2018-12-05T21:25:38.798Z,101075.81
2018-12-05T21:28:01.968Z,101071.88
2018-12-05T21:30:25.184Z,101069.91
2018-12-05T21:32:48.284Z,101066.74
2018-12-05T21:35:11.408Z,101070.50
2018-12-05T21:37:34.556Z,101060.03
2018-12-05T21:39:57.703Z,101062.22
2018-12-05T21:42:21.683Z,101058.48
2018-12-05T21:44:44.810Z,101056.89
2018-12-05T21:47:07.975Z,101053.75
2018-12-05T21:49:31.087Z,101052.96
2018-12-05T21:51:54.203Z,101045.09
2018-12-05T21:54:17.367Z,101045.10
2018-12-05T21:56:40.469Z,101046.08
2018-12-05T21:59:03.617Z,101048.20
2018-12-05T22:01:26.725Z,101040.32
2018-12-05T22:03:49.824Z,101039.52
2018-12-05T22:06:13.010Z,101054.52
2018-12-05T22:08:36.160Z,101053.16
2018-12-05T22:10:59.334Z,101059.19
2018-12-05T22:13:22.519Z,101049.48
2018-12-05T22:15:45.673Z,101048.22
2018-12-05T22:18:08.839Z,101050.48
2018-12-05T22:20:32.055Z,101055.20
2018-12-05T22:22:55.230Z,101057.56
2018-12-05T22:25:18.373Z,101058.80
2018-12-05T22:27:41.478Z,101061.52
2018-12-05T22:30:05.885Z,101060.77
2018-12-05T22:32:29.001Z,101056.48
2018-12-05T22:34:52.118Z,101049.83
2018-12-05T22:37:15.266Z,101045.06
2018-12-05T22:39:38.384Z,101041.93
2018-12-05T22:42:01.545Z,101042.12
2018-12-05T22:44:24.648Z,101033.65
2018-12-05T22:46:47.757Z,101033.28
2018-12-05T22:49:10.903Z,101021.64
2018-12-05T22:51:34.016Z,101019.28
2018-12-05T22:53:57.139Z,101018.68
2018-12-05T22:56:20.299Z,101019.07
2018-12-05T22:58:43.387Z,101019.87
2018-12-05T23:01:06.628Z,101014.38
2018-12-05T23:03:29.792Z,101001.94
2018-12-05T23:05:52.893Z,101006.49
2018-12-05T23:08:16.036Z,100996.82
2018-12-05T23:10:39.163Z,100999.37
2018-12-05T23:13:02.311Z,100978.53
2018-12-05T23:15:25.498Z,100992.12
2018-12-05T23:17:48.599Z,100983.63
2018-12-05T23:20:11.725Z,100984.78
2018-12-05T23:22:34.837Z,100979.27
2018-12-05T23:24:57.945Z,100981.69
2018-12-05T23:27:21.176Z,100970.64
2018-12-05T23:29:44.286Z,100972.04
2018-12-05T23:32:07.404Z,100970.18
2018-12-05T23:34:30.514Z,100969.67
2018-12-05T23:36:53.660Z,100964.55
2018-12-05T23:39:16.791Z,100968.82
2018-12-05T23:41:39.938Z,100965.13
2018-12-05T23:44:03.119Z,100973.79
2018-12-05T23:46:26.275Z,100966.30
2018-12-05T23:48:49.376Z,100966.28
2018-12-05T23:51:12.492Z,100951.93
2018-12-05T23:53:35.616Z,100952.53
2018-12-05T23:55:58.807Z,100950.16
2018-12-05T23:58:21.926Z,100944.80
